Time;durP1;ratioP1;P1;durP2;ratioP2;P2;SDS_P1;SDS_P2;PMS_P1;PMS_P2;Temp;Humidity;BMP_temperature;BMP_pressure;BME280_temperature;BME280_humidity;BME280_pressure;Samples;Min_cycle;Max_cycle;Signal;HPM_P1;HPM_P2
2021/10/19 00:00:38;;;;;;;25.80;18.80;;;;;;;;;;5033482;28;20203;-59
2021/10/19 00:03:08;;;;;;;24.30;19.40;;;;;;;;;;5033216;28;20450;-59
2021/10/19 00:05:35;;;;;;;26.90;19.27;;;;;;;;;;5033092;28;20943;-59
2021/10/19 00:08:03;;;;;;;24.80;18.87;;;;;;;;;;5056920;22;20482;-60
2021/10/19 00:10:32;;;;;;;22.53;18.30;;;;;;;;;;5033462;28;20437;-61
2021/10/19 00:12:59;;;;;;;21.95;17.27;;;;;;;;;;5033575;28;20557;-61
2021/10/19 00:15:26;;;;;;;26.63;18.70;;;;;;;;;;5033393;28;20202;-60
2021/10/19 00:17:54;;;;;;;22.25;17.65;;;;;;;;;;5032969;28;20954;-61
2021/10/19 00:20:21;;;;;;;21.65;16.98;;;;;;;;;;5033255;28;20206;-61
2021/10/19 00:22:48;;;;;;;23.83;17.67;;;;;;;;;;5033192;28;20206;-61
2021/10/19 00:25:17;;;;;;;21.27;17.10;;;;;;;;;;5036867;28;20454;-61
2021/10/19 00:27:45;;;;;;;21.40;17.57;;;;;;;;;;5037423;28;20460;-61
2021/10/19 00:30:13;;;;;;;20.47;17.60;;;;;;;;;;5037549;28;20445;-60
2021/10/19 00:32:40;;;;;;;22.50;17.60;;;;;;;;;;5037594;28;20457;-61
2021/10/19 00:35:08;;;;;;;25.70;18.83;;;;;;;;;;5037397;28;20442;-61
2021/10/19 00:37:36;;;;;;;23.23;17.67;;;;;;;;;;5037365;28;20208;-61
2021/10/19 00:40:04;;;;;;;23.23;17.43;;;;;;;;;;5037049;28;20936;-60
2021/10/19 00:42:33;;;;;;;20.77;17.40;;;;;;;;;;5036889;28;20461;-60
2021/10/19 00:45:02;;;;;;;23.77;18.80;;;;;;;;;;5036926;28;20453;-61
2021/10/19 00:47:29;;;;;;;26.35;18.23;;;;;;;;;;5036808;28;20207;-61
2021/10/19 00:49:56;;;;;;;25.47;17.33;;;;;;;;;;5036851;28;20222;-61
2021/10/19 00:52:24;;;;;;;19.40;17.00;;;;;;;;;;5037631;28;20449;-61
2021/10/19 00:54:52;;;;;;;22.50;18.50;;;;;;;;;;5036890;28;20513;-61
2021/10/19 00:57:20;;;;;;;23.52;18.98;;;;;;;;;;5036723;28;20453;-61
2021/10/19 00:59:48;;;;;;;25.37;18.13;;;;;;;;;;5036545;28;20307;-66
2021/10/19 01:02:17;;;;;;;25.00;18.30;;;;;;;;;;5037012;28;20477;-61
2021/10/19 01:04:44;;;;;;;21.97;17.27;;;;;;;;;;5036640;28;20503;-61
2021/10/19 01:07:11;;;;;;;24.33;19.60;;;;;;;;;;5037618;28;20450;-61
2021/10/19 01:09:39;;;;;;;23.13;17.73;;;;;;;;;;5036313;28;20485;-60
2021/10/19 01:12:07;;;;;;;21.27;16.97;;;;;;;;;;5036746;28;20208;-61
2021/10/19 01:14:34;;;;;;;23.63;18.00;;;;;;;;;;5036165;28;20998;-61
2021/10/19 01:17:02;;;;;;;22.97;19.17;;;;;;;;;;5036214;28;20443;-61
2021/10/19 01:19:31;;;;;;;27.70;19.13;;;;;;;;;;5036474;28;20663;-61
2021/10/19 01:22:00;;;;;;;21.67;17.07;;;;;;;;;;5036512;28;20454;-61
2021/10/19 01:24:27;;;;;;;26.87;18.47;;;;;;;;;;5036323;28;20447;-61
2021/10/19 01:26:55;;;;;;;23.70;18.47;;;;;;;;;;5036363;28;20445;-61
2021/10/19 01:29:22;;;;;;;23.47;18.70;;;;;;;;;;5036331;28;20467;-61
2021/10/19 01:31:50;;;;;;;25.03;19.00;;;;;;;;;;5036410;28;20849;-60
2021/10/19 01:34:17;;;;;;;22.80;18.73;;;;;;;;;;5036282;28;20482;-61
2021/10/19 01:36:45;;;;;;;21.90;17.60;;;;;;;;;;5035860;28;20446;-61
2021/10/19 01:39:14;;;;;;;22.07;18.73;;;;;;;;;;5043780;28;20470;-61
2021/10/19 01:41:42;;;;;;;23.57;17.37;;;;;;;;;;5047518;28;20462;-61
2021/10/19 01:44:10;;;;;;;22.33;18.77;;;;;;;;;;5046634;28;20889;-61
2021/10/19 01:46:37;;;;;;;21.63;16.97;;;;;;;;;;5047987;28;20447;-61
2021/10/19 01:49:04;;;;;;;22.40;17.30;;;;;;;;;;5046793;28;20477;-61
2021/10/19 01:51:32;;;;;;;32.93;19.57;;;12.20;93.20;;;;;;5046344;28;20866;-61
2021/10/19 01:54:00;;;;;;;23.27;17.50;;;11.10;99.90;;;;;;5044862;28;20479;-61
2021/10/19 01:56:28;;;;;;;19.63;16.00;;;11.10;99.90;;;;;;5044615;28;20455;-61
2021/10/19 01:58:55;;;;;;;22.87;19.10;;;11.10;99.90;;;;;;5040542;28;20466;-61
2021/10/19 02:01:23;;;;;;;24.70;18.10;;;11.10;99.90;;;;;;5042246;28;20477;-60
2021/10/19 02:03:50;;;;;;;21.27;17.60;;;11.10;99.90;;;;;;5043576;28;20483;-61
2021/10/19 02:06:18;;;;;;;22.50;17.37;;;11.10;99.90;;;;;;5041864;28;20453;-61
2021/10/19 02:08:52;;;;;;;24.17;17.30;;;11.20;99.90;;;;;;5038953;28;20476;-62
2021/10/19 02:11:20;;;;;;;23.20;17.97;;;11.10;99.90;;;;;;5036928;28;20851;-61
2021/10/19 02:13:48;;;;;;;22.90;16.40;;;11.20;99.90;;;;;;5035846;28;20490;-61
2021/10/19 02:16:15;;;;;;;22.30;17.50;;;11.20;99.90;;;;;;5036433;28;20448;-61
2021/10/19 02:18:42;;;;;;;21.90;17.60;;;11.20;99.90;;;;;;5035972;28;20974;-61
2021/10/19 02:21:09;;;;;;;24.83;17.80;;;11.20;99.90;;;;;;5035857;28;20451;-61
2021/10/19 02:23:36;;;;;;;24.23;19.03;;;11.20;99.90;;;;;;5036672;28;20452;-61
2021/10/19 02:26:03;;;;;;;23.13;17.03;;;11.20;99.90;;;;;;5035431;28;20469;-61
2021/10/19 02:28:30;;;;;;;23.10;18.30;;;11.20;99.90;;;;;;5035622;28;20466;-61
2021/10/19 02:30:59;;;;;;;23.93;17.70;;;11.20;99.90;;;;;;5035540;28;20852;-61
2021/10/19 02:33:26;;;;;;;21.27;17.60;;;11.20;99.90;;;;;;5035174;28;20996;-61
2021/10/19 02:35:53;;;;;;;24.80;18.27;;;11.20;99.90;;;;;;5035078;28;20447;-61
2021/10/19 02:38:20;;;;;;;23.30;17.37;;;11.20;99.90;;;;;;5035203;28;20474;-61
2021/10/19 02:40:47;;;;;;;22.83;17.63;;;11.20;99.90;;;;;;5035078;28;20446;-60
2021/10/19 02:43:15;;;;;;;22.47;16.37;;;11.20;99.90;;;;;;5034928;28;20446;-61
2021/10/19 02:45:42;;;;;;;21.90;17.30;;;11.20;99.90;;;;;;5034639;28;20542;-60
2021/10/19 02:48:10;;;;;;;20.63;17.23;;;11.20;99.90;;;;;;5033511;28;20471;-60
2021/10/19 02:50:37;;;;;;;23.20;17.70;;;11.30;99.90;;;;;;5034901;28;20454;-60
2021/10/19 02:53:04;;;;;;;23.40;17.50;;;11.30;99.90;;;;;;5034470;28;20454;-61
2021/10/19 02:55:31;;;;;;;22.33;17.50;;;11.30;99.90;;;;;;5034405;28;20477;-60
2021/10/19 02:57:58;;;;;;;21.50;16.97;;;11.30;99.90;;;;;;5034647;28;20886;-61
2021/10/19 03:00:25;;;;;;;23.67;17.43;;;11.40;99.90;;;;;;5034816;28;20828;-61
2021/10/19 03:02:53;;;;;;;21.90;17.37;;;11.40;99.90;;;;;;5034696;28;20450;-61
2021/10/19 03:05:21;;;;;;;24.73;17.97;;;11.40;99.90;;;;;;5034711;28;20441;-60
2021/10/19 03:07:48;;;;;;;21.13;17.80;;;11.40;99.90;;;;;;5034643;28;20458;-61
2021/10/19 03:10:15;;;;;;;24.83;18.03;;;11.40;99.90;;;;;;5034230;28;20428;-61
2021/10/19 03:12:42;;;;;;;22.10;16.93;;;11.40;99.90;;;;;;5034389;28;20481;-61
2021/10/19 03:15:10;;;;;;;24.50;17.97;;;11.40;99.90;;;;;;5034014;28;20472;-60
2021/10/19 03:17:37;;;;;;;22.10;16.90;;;11.40;99.90;;;;;;5033885;28;20467;-62
2021/10/19 03:20:06;;;;;;;23.40;17.33;;;11.40;99.90;;;;;;5034146;28;20445;-61
2021/10/19 03:22:34;;;;;;;21.50;16.50;;;11.40;99.90;;;;;;5034071;28;20894;-61
2021/10/19 03:25:01;;;;;;;25.03;17.07;;;11.40;99.90;;;;;;5033724;28;20440;-61
2021/10/19 03:27:28;;;;;;;24.80;18.43;;;11.40;99.90;;;;;;5034210;28;20448;-60
2021/10/19 03:29:55;;;;;;;21.30;17.30;;;11.50;99.90;;;;;;5033927;28;20478;-61
2021/10/19 03:32:22;;;;;;;20.90;17.27;;;11.50;99.90;;;;;;5034295;28;20443;-61
2021/10/19 03:34:50;;;;;;;24.30;17.40;;;11.50;99.90;;;;;;5033773;28;20970;-61
2021/10/19 03:37:17;;;;;;;20.53;17.30;;;11.50;99.90;;;;;;5033912;28;20498;-61
2021/10/19 03:39:45;;;;;;;19.83;16.20;;;11.50;99.90;;;;;;5033786;28;20464;-61
2021/10/19 03:42:12;;;;;;;23.50;17.80;;;11.50;99.90;;;;;;5033814;28;20456;-60
2021/10/19 03:44:39;;;;;;;24.33;18.37;;;11.50;99.90;;;;;;5034908;28;20450;-60
2021/10/19 03:47:06;;;;;;;21.33;16.30;;;11.50;99.90;;;;;;5034804;28;20455;-61
2021/10/19 03:49:33;;;;;;;24.10;18.07;;;11.50;99.90;;;;;;5033272;28;20476;-61
2021/10/19 03:52:00;;;;;;;19.30;16.40;;;11.50;99.90;;;;;;5033414;28;20442;-61
2021/10/19 03:54:28;;;;;;;22.53;17.50;;;11.50;99.90;;;;;;5033523;28;20473;-62
2021/10/19 03:56:56;;;;;;;27.07;18.13;;;11.50;99.90;;;;;;5033276;28;20476;-61
2021/10/19 03:59:23;;;;;;;21.37;17.80;;;11.60;99.90;;;;;;5033107;28;20467;-61
2021/10/19 04:01:50;;;;;;;23.33;17.83;;;11.60;99.90;;;;;;5033637;28;20448;-59
2021/10/19 04:04:19;;;;;;;24.13;17.97;;;11.60;99.90;;;;;;5033617;28;20444;-61
2021/10/19 04:08:43;;;;;;;23.63;18.20;;;11.60;99.90;;;;;;5099807;27;1406289;-60
2021/10/19 04:11:10;;;;;;;22.70;15.17;;;11.60;99.90;;;;;;5135146;28;20943;-61
2021/10/19 04:13:37;;;;;;;22.03;17.93;;;11.70;99.90;;;;;;5133014;28;20444;-61
2021/10/19 04:16:05;;;;;;;25.70;16.03;;;11.70;99.90;;;;;;5132057;28;20451;-61
2021/10/19 04:18:32;;;;;;;21.37;16.70;;;11.70;99.90;;;;;;5132353;27;20468;-60
2021/10/19 04:21:00;;;;;;;20.57;15.77;;;11.70;99.90;;;;;;5137652;28;20432;-60
2021/10/19 04:23:27;;;;;;;21.17;17.13;;;11.70;99.90;;;;;;5136626;28;20794;-61
2021/10/19 04:25:56;;;;;;;22.20;15.80;;;11.70;99.90;;;;;;5131923;28;20449;-62
2021/10/19 04:28:23;;;;;;;21.37;16.87;;;11.80;99.90;;;;;;5131363;27;20995;-62
2021/10/19 04:30:51;;;;;;;23.50;17.80;;;11.80;99.90;;;;;;5131726;28;20437;-60
2021/10/19 04:33:19;;;;;;;20.03;16.30;;;11.80;99.90;;;;;;5132225;28;20492;-62
2021/10/19 04:35:46;;;;;;;25.17;18.07;;;11.80;99.90;;;;;;5143423;28;20451;-60
2021/10/19 04:38:13;;;;;;;22.60;17.77;;;11.80;99.90;;;;;;5147803;27;20464;-60
2021/10/19 04:40:40;;;;;;;20.80;16.57;;;11.80;99.90;;;;;;5147133;28;20936;-61
2021/10/19 04:43:09;;;;;;;23.67;16.57;;;11.90;99.90;;;;;;5145938;28;20444;-61
2021/10/19 04:45:36;;;;;;;22.50;16.77;;;11.90;99.90;;;;;;5145082;28;20459;-60
2021/10/19 04:48:03;;;;;;;22.10;16.90;;;11.90;99.90;;;;;;5144110;27;20484;-60
2021/10/19 04:50:31;;;;;;;19.77;15.77;;;11.90;99.90;;;;;;5143442;28;20447;-61
2021/10/19 04:52:58;;;;;;;20.10;17.10;;;11.90;99.90;;;;;;5140560;28;20448;-62
2021/10/19 04:55:26;;;;;;;20.50;16.40;;;11.90;99.90;;;;;;5134302;28;20456;-61
2021/10/19 04:57:53;;;;;;;20.90;15.77;;;11.90;99.90;;;;;;5134324;27;20468;-61
2021/10/19 05:00:21;;;;;;;21.27;16.93;;;11.90;99.90;;;;;;5134080;28;20780;-61
2021/10/19 05:02:50;;;;;;;22.10;17.80;;;11.90;99.90;;;;;;5133650;28;20449;-61
2021/10/19 05:05:19;;;;;;;20.63;15.80;;;11.90;99.90;;;;;;5133883;28;20440;-62
2021/10/19 05:07:46;;;;;;;20.97;16.80;;;11.90;99.90;;;;;;5135223;27;20476;-62
2021/10/19 05:10:13;;;;;;;19.57;16.00;;;11.90;99.90;;;;;;5139245;28;20448;-61
2021/10/19 05:12:40;;;;;;;23.37;17.87;;;11.90;99.90;;;;;;5137911;28;20444;-62
2021/10/19 05:15:08;;;;;;;22.27;17.17;;;11.90;99.90;;;;;;5136058;28;20447;-61
2021/10/19 05:17:37;;;;;;;20.83;16.30;;;11.90;99.90;;;;;;5136065;28;20441;-62
2021/10/19 05:20:05;;;;;;;20.63;15.50;;;11.90;99.90;;;;;;5122546;28;20476;-62
2021/10/19 05:22:32;;;;;;;21.93;16.50;;;11.90;99.90;;;;;;5123137;28;20453;-62
2021/10/19 05:24:59;;;;;;;18.60;15.57;;;12.00;99.90;;;;;;5122381;28;20519;-61
2021/10/19 05:27:26;;;;;;;23.03;15.80;;;12.00;99.90;;;;;;5120967;28;20477;-61
2021/10/19 05:29:53;;;;;;;24.43;17.60;;;12.00;99.90;;;;;;5120295;28;20831;-62
2021/10/19 05:32:21;;;;;;;21.67;16.67;;;12.00;99.90;;;;;;5120659;28;20814;-61
2021/10/19 05:34:50;;;;;;;20.33;15.90;;;12.00;99.90;;;;;;5118893;28;20451;-62
2021/10/19 05:37:17;;;;;;;19.27;15.53;;;12.00;99.90;;;;;;5118270;28;20443;-62
2021/10/19 05:39:44;;;;;;;21.63;15.17;;;12.00;99.90;;;;;;5117831;28;20488;-60
2021/10/19 05:42:13;;;;;;;19.73;16.53;;;12.00;99.80;;;;;;5117405;28;20453;-61
2021/10/19 05:44:40;;;;;;;21.43;16.37;;;12.00;99.70;;;;;;5117266;28;20445;-60
2021/10/19 05:47:07;;;;;;;20.57;17.10;;;12.00;99.70;;;;;;5117107;28;20991;-61
2021/10/19 05:49:34;;;;;;;21.37;16.57;;;11.90;99.70;;;;;;5129007;28;20467;-62
2021/10/19 05:52:03;;;;;;;22.40;16.10;;;11.90;99.80;;;;;;5137715;28;20441;-61
2021/10/19 05:54:30;;;;;;;20.70;16.30;;;11.90;99.90;;;;;;5136023;28;20498;-63
2021/10/19 05:56:57;;;;;;;23.50;15.90;;;11.80;99.80;;;;;;5121896;28;20445;-63
2021/10/19 05:59:25;;;;;;;20.27;15.93;;;11.80;99.90;;;;;;5117757;28;20465;-61
2021/10/19 06:01:52;;;;;;;22.83;17.30;;;11.70;99.90;;;;;;5116751;28;20862;-61
2021/10/19 06:04:19;;;;;;;24.80;18.53;;;11.70;99.90;;;;;;5116283;28;20815;-62
2021/10/19 06:06:54;;;;;;;21.60;16.10;;;11.70;99.90;;;;;;5116457;28;20449;-61
2021/10/19 06:09:23;;;;;;;23.00;15.73;;;11.70;99.90;;;;;;5102600;22;20487;-60
2021/10/19 06:11:50;;;;;;;24.13;17.60;;;11.70;99.90;;;;;;5057280;28;20440;-60
2021/10/19 06:14:18;;;;;;;20.90;15.90;;;11.70;99.90;;;;;;5055477;28;20447;-60
2021/10/19 06:16:45;;;;;;;20.20;15.60;;;11.70;99.90;;;;;;5055024;28;20444;-61
2021/10/19 06:19:12;;;;;;;21.90;17.40;;;11.70;99.90;;;;;;5054538;28;20451;-61
2021/10/19 06:21:39;;;;;;;23.97;16.13;;;11.70;99.90;;;;;;5054951;28;20452;-58
2021/10/19 06:24:07;;;;;;;21.07;16.37;;;11.60;99.90;;;;;;5054674;28;20803;-61
2021/10/19 06:26:36;;;;;;;20.83;16.00;;;11.70;99.90;;;;;;5054477;28;20948;-61
2021/10/19 06:29:05;;;;;;;20.80;16.40;;;11.60;99.90;;;;;;5054239;28;20480;-61
2021/10/19 06:31:32;;;;;;;22.07;16.53;;;11.60;99.90;;;;;;5053607;28;20444;-60
2021/10/19 06:34:00;;;;;;;21.03;15.80;;;11.60;99.90;;;;;;5056583;28;20447;-59
2021/10/19 06:36:27;;;;;;;21.43;15.43;;;11.70;99.90;;;;;;5054117;28;20450;-59
2021/10/19 06:38:55;;;;;;;21.50;16.73;;;11.70;99.90;;;;;;5054090;28;20474;-59
2021/10/19 06:41:22;;;;;;;22.37;16.30;;;11.70;99.90;;;;;;5054034;28;20451;-60
2021/10/19 06:43:51;;;;;;;18.03;15.20;;;11.70;99.90;;;;;;5053824;28;21034;-59
2021/10/19 06:46:19;;;;;;;20.50;15.40;;;11.70;99.90;;;;;;5053948;28;20463;-59
2021/10/19 06:48:46;;;;;;;25.97;17.17;;;11.80;99.90;;;;;;5053544;28;20479;-59
2021/10/19 06:51:13;;;;;;;23.87;16.97;;;11.80;99.90;;;;;;5053845;28;20443;-58
2021/10/19 06:53:40;;;;;;;19.13;15.20;;;11.90;99.90;;;;;;5053478;28;20447;-59
2021/10/19 06:56:07;;;;;;;24.00;17.80;;;12.00;99.90;;;;;;5053298;28;20444;-60
2021/10/19 06:58:34;;;;;;;21.17;16.90;;;12.10;99.90;;;;;;5053567;28;20464;-59
2021/10/19 07:01:05;;;;;;;21.73;16.27;;;12.10;99.90;;;;;;5053561;28;20476;-59
2021/10/19 07:03:32;;;;;;;19.37;16.40;;;12.30;99.90;;;;;;5053931;28;20440;-59
2021/10/19 07:06:02;;;;;;;20.37;16.67;;;12.30;99.90;;;;;;5053638;28;20451;-59
2021/10/19 07:08:30;;;;;;;19.73;15.90;;;12.40;99.80;;;;;;5053467;28;20995;-60
2021/10/19 07:10:57;;;;;;;25.53;16.80;;;12.60;99.70;;;;;;5054032;28;20439;-59
2021/10/19 07:13:24;;;;;;;21.30;16.27;;;12.60;99.40;;;;;;5053790;28;20452;-58
2021/10/19 07:15:53;;;;;;;18.73;15.00;;;12.70;99.30;;;;;;5053066;28;20964;-59
2021/10/19 07:18:22;;;;;;;18.43;14.47;;;12.80;99.10;;;;;;5053593;28;20517;-59
2021/10/19 07:20:50;;;;;;;20.60;16.40;;;12.90;98.90;;;;;;5053209;28;20941;-59
2021/10/19 07:23:17;;;;;;;21.67;16.47;;;13.00;98.70;;;;;;5052963;28;20970;-59
2021/10/19 07:25:45;;;;;;;20.57;15.30;;;13.00;98.50;;;;;;5053447;28;20456;-58
2021/10/19 07:28:13;;;;;;;27.53;20.20;;;13.20;98.40;;;;;;5053124;28;20487;-60
2021/10/19 07:30:40;;;;;;;20.50;16.60;;;13.20;98.10;;;;;;5053077;28;20443;-59
2021/10/19 07:33:07;;;;;;;18.73;14.80;;;13.30;97.90;;;;;;5053076;28;20982;-59
2021/10/19 07:35:36;;;;;;;23.47;16.27;;;13.40;97.70;;;;;;5052892;28;20453;-59
2021/10/19 07:38:03;;;;;;;22.73;15.50;;;13.50;97.50;;;;;;5053167;28;20448;-61
2021/10/19 07:40:30;;;;;;;16.90;13.70;;;13.50;97.20;;;;;;5053069;28;20473;-60
2021/10/19 07:42:57;;;;;;;20.17;15.90;;;13.60;97.00;;;;;;5052952;28;20444;-59
2021/10/19 07:45:26;;;;;;;16.17;13.80;;;13.70;96.80;;;;;;5053780;28;20453;-59
2021/10/19 07:47:53;;;;;;;19.90;15.10;;;13.70;96.60;;;;;;5052709;28;20511;-59
2021/10/19 07:50:22;;;;;;;19.30;13.67;;;13.80;96.50;;;;;;5053014;28;20494;-59
2021/10/19 07:52:52;;;;;;;20.80;15.33;;;13.90;96.20;;;;;;5053091;28;20494;-59
2021/10/19 07:55:20;;;;;;;17.93;14.13;;;13.90;96.10;;;;;;5052870;28;20450;-59
2021/10/19 07:57:48;;;;;;;17.33;14.90;;;13.90;96.00;;;;;;5052567;28;20450;-58
2021/10/19 08:00:17;;;;;;;17.60;14.10;;;13.90;95.80;;;;;;5052628;28;20472;-60
2021/10/19 08:02:46;;;;;;;17.30;12.60;;;13.90;96.10;;;;;;5052821;28;20440;-59
2021/10/19 08:05:14;;;;;;;21.73;14.97;;;13.90;95.80;;;;;;5052602;28;20547;-61
2021/10/19 08:07:42;;;;;;;18.20;13.77;;;13.90;95.70;;;;;;5052652;28;20453;-59
2021/10/19 08:10:12;;;;;;;15.30;13.50;;;13.90;95.60;;;;;;5052545;28;20480;-59
2021/10/19 08:12:39;;;;;;;18.00;14.00;;;13.90;95.60;;;;;;5052497;28;20443;-61
2021/10/19 08:15:07;;;;;;;14.50;12.60;;;14.00;95.60;;;;;;5052494;28;20967;-59
2021/10/19 08:17:35;;;;;;;15.43;13.50;;;14.00;95.50;;;;;;5052246;28;20450;-59
2021/10/19 08:20:02;;;;;;;15.80;14.13;;;14.00;95.40;;;;;;5052462;28;20463;-61
2021/10/19 08:22:31;;;;;;;15.07;13.30;;;14.00;95.40;;;;;;5052483;28;20451;-59
2021/10/19 08:24:58;;;;;;;17.40;14.60;;;14.00;95.50;;;;;;5052676;28;20459;-60
2021/10/19 08:27:27;;;;;;;15.50;13.67;;;13.90;95.50;;;;;;5052209;28;20931;-60
2021/10/19 08:29:54;;;;;;;14.93;13.33;;;13.90;95.70;;;;;;5052499;28;20490;-59
2021/10/19 08:32:21;;;;;;;15.63;13.10;;;13.90;95.80;;;;;;5052564;28;20452;-59
2021/10/19 08:34:48;;;;;;;15.53;13.10;;;13.90;95.90;;;;;;5052433;28;20966;-60
2021/10/19 08:37:15;;;;;;;18.40;13.80;;;14.00;96.00;;;;;;5052607;28;20443;-59
2021/10/19 08:39:43;;;;;;;15.40;12.23;;;14.00;96.00;;;;;;5052739;28;20469;-59
2021/10/19 08:42:10;;;;;;;15.47;13.50;;;14.10;96.00;;;;;;5052079;28;20448;-60
2021/10/19 08:44:38;;;;;;;17.83;13.23;;;14.20;95.90;;;;;;5051680;28;20450;-59
2021/10/19 08:47:06;;;;;;;15.93;13.07;;;14.40;95.80;;;;;;5052313;28;20448;-59
2021/10/19 08:49:33;;;;;;;17.97;13.93;;;14.50;95.70;;;;;;5051919;28;20485;-59
2021/10/19 08:52:00;;;;;;;14.70;13.10;;;14.60;95.50;;;;;;5052130;28;20444;-59
2021/10/19 08:54:27;;;;;;;15.43;13.07;;;14.60;95.40;;;;;;5053728;28;20451;-59
2021/10/19 08:56:54;;;;;;;17.83;13.70;;;14.70;95.30;;;;;;5056321;28;20445;-59
2021/10/19 08:59:23;;;;;;;16.37;12.40;;;14.70;95.20;;;;;;5055772;28;20459;-59
2021/10/19 09:01:55;;;;;;;17.93;15.93;;;14.80;95.00;;;;;;5055746;28;20490;-59
2021/10/19 09:04:26;;;;;;;15.93;13.00;;;14.70;94.90;;;;;;5056003;28;20427;-59
2021/10/19 09:06:53;;;;;;;15.37;13.03;;;14.70;94.90;;;;;;5055621;28;20432;-60
2021/10/19 09:09:24;;;;;;;16.00;12.93;;;14.80;94.90;;;;;;5055659;28;20487;-60
2021/10/19 09:11:53;;;;;;;25.37;15.50;;;14.90;94.80;;;;;;5055826;28;20519;-59
2021/10/19 09:14:22;;;;;;;19.17;12.73;;;15.10;94.60;;;;;;5055842;28;20479;-58
2021/10/19 09:16:52;;;;;;;16.93;12.17;;;15.20;94.30;;;;;;5055591;28;20562;-59
2021/10/19 09:19:20;;;;;;;14.30;12.60;;;15.30;94.00;;;;;;5054698;28;20496;-60
2021/10/19 09:21:50;;;;;;;16.00;12.83;;;15.40;93.50;;;;;;5055247;28;20436;-60
2021/10/19 09:24:28;;;;;;;15.67;13.03;;;15.50;93.30;;;;;;5056143;28;20448;-60
2021/10/19 09:26:57;;;;;;;14.37;12.30;;;15.70;93.10;;;;;;5055332;28;20941;-57
2021/10/19 09:29:26;;;;;;;14.47;11.60;;;15.70;92.80;;;;;;5055378;28;20494;-59
2021/10/19 09:31:56;;;;;;;14.37;12.30;;;15.80;92.70;;;;;;5055654;28;20493;-59
2021/10/19 09:34:24;;;;;;;16.90;10.90;;;15.90;92.50;;;;;;5055152;28;20440;-59
2021/10/19 09:36:52;;;;;;;14.50;11.93;;;15.90;92.40;;;;;;5055254;28;20444;-58
2021/10/19 09:39:33;;;;;;;14.37;10.57;;;15.90;92.30;;;;;;5055305;28;20508;-59
2021/10/19 09:42:01;;;;;;;16.87;10.97;;;15.90;92.30;;;;;;5055367;28;20438;-59
2021/10/19 09:44:28;;;;;;;13.40;9.90;;;16.00;92.30;;;;;;5055077;28;20442;-59
2021/10/19 09:46:59;;;;;;;11.87;10.67;;;16.10;92.20;;;;;;5054842;28;20454;-59
2021/10/19 09:49:28;;;;;;;14.47;11.30;;;16.20;92.00;;;;;;5054662;28;21030;-60
2021/10/19 09:51:57;;;;;;;14.47;11.10;;;16.30;91.80;;;;;;5054958;28;20454;-60
2021/10/19 09:54:27;;;;;;;12.10;10.47;;;16.30;91.70;;;;;;5054724;28;20442;-59
2021/10/19 09:56:57;;;;;;;19.23;15.80;;;16.40;91.60;;;;;;5054629;28;20424;-58
2021/10/19 09:59:25;;;;;;;14.70;12.93;;;16.50;91.40;;;;;;5054716;28;20896;-59
2021/10/19 10:01:52;;;;;;;12.10;10.07;;;16.50;91.30;;;;;;5055185;28;20852;-58
2021/10/19 10:04:21;;;;;;;10.27;9.20;;;16.50;91.30;;;;;;5055151;28;20451;-58
2021/10/19 10:06:50;;;;;;;14.33;11.37;;;16.60;91.20;;;;;;5054963;28;20454;-59
2021/10/19 10:09:18;;;;;;;12.70;11.37;;;16.60;91.20;;;;;;5054431;28;20556;-60
2021/10/19 10:11:45;;;;;;;11.53;10.03;;;16.60;91.10;;;;;;5054781;28;20444;-57
2021/10/19 10:14:14;;;;;;;14.80;10.33;;;16.60;91.20;;;;;;5055174;28;20458;-59
2021/10/19 10:16:47;;;;;;;11.87;10.40;;;16.60;91.20;;;;;;5054595;28;20849;-59
2021/10/19 10:19:16;;;;;;;12.20;9.27;;;16.60;91.20;;;;;;5054354;28;20460;-59
2021/10/19 10:21:49;;;;;;;14.53;9.93;;;16.50;91.30;;;;;;5054709;28;20473;-59
2021/10/19 10:24:28;;;;;;;11.13;9.93;;;16.50;91.40;;;;;;5054098;28;20823;-60
2021/10/19 10:27:09;;;;;;;12.03;10.40;;;16.40;91.40;;;;;;5054269;28;20475;-60
2021/10/19 10:29:42;;;;;;;11.90;9.70;;;16.40;91.50;;;;;;5053880;28;20483;-60
2021/10/19 10:32:24;;;;;;;10.53;8.87;;;16.40;91.60;;;;;;5053985;28;20955;-63
2021/10/19 10:35:05;;;;;;;10.80;9.23;;;16.40;91.70;;;;;;5054254;28;20434;-62
2021/10/19 10:37:38;;;;;;;10.90;9.10;;;16.50;91.80;;;;;;5054300;28;20428;-59
2021/10/19 10:40:07;;;;;;;9.97;8.87;;;16.40;91.70;;;;;;5053923;28;20538;-59
2021/10/19 10:42:37;;;;;;;11.13;10.03;;;16.50;91.90;;;;;;5053587;28;20456;-60
2021/10/19 10:45:16;;;;;;;10.87;8.80;;;16.50;91.90;;;;;;5054057;28;20446;-58
2021/10/19 10:47:46;;;;;;;11.67;8.80;;;16.50;91.90;;;;;;5053796;28;20431;-59
2021/10/19 10:50:13;;;;;;;9.97;8.97;;;16.60;92.00;;;;;;5054510;28;20518;-58
2021/10/19 10:52:42;;;;;;;10.57;9.43;;;16.60;92.00;;;;;;5053537;28;20451;-60
2021/10/19 10:55:13;;;;;;;10.30;9.17;;;16.70;91.90;;;;;;5053185;28;20516;-59
2021/10/19 10:57:45;;;;;;;12.23;8.90;;;16.80;91.90;;;;;;5053400;28;20474;-57
2021/10/19 11:00:13;;;;;;;11.10;8.63;;;16.80;91.90;;;;;;5053471;28;20507;-59
2021/10/19 11:02:41;;;;;;;10.27;7.87;;;16.80;91.90;;;;;;5053829;28;20512;-59
2021/10/19 11:05:13;;;;;;;10.53;9.10;;;16.70;92.00;;;;;;5053506;28;20451;-58
2021/10/19 11:07:43;;;;;;;10.00;9.00;;;16.70;92.20;;;;;;5053379;28;20442;-59
2021/10/19 11:10:13;;;;;;;10.70;9.70;;;16.60;92.30;;;;;;5052921;28;20513;-59
2021/10/19 11:12:41;;;;;;;10.00;9.10;;;16.60;92.50;;;;;;5053420;28;20906;-60
2021/10/19 11:15:12;;;;;;;9.80;8.37;;;16.60;92.70;;;;;;5053769;28;20478;-61
2021/10/19 11:17:47;;;;;;;11.90;10.80;;;16.60;92.70;;;;;;5052791;28;20427;-61
2021/10/19 11:20:14;;;;;;;8.57;7.70;;;16.60;92.70;;;;;;5052769;28;20477;-59
2021/10/19 11:22:42;;;;;;;7.93;7.10;;;16.60;92.70;;;;;;5053358;28;20450;-60
2021/10/19 11:25:10;;;;;;;9.33;7.70;;;16.60;92.80;;;;;;5053351;28;20467;-61
2021/10/19 11:27:38;;;;;;;9.13;7.73;;;16.60;93.00;;;;;;5053257;28;20470;-60
2021/10/19 11:30:07;;;;;;;7.97;7.10;;;16.50;93.10;;;;;;5052980;28;20491;-61
2021/10/19 11:32:35;;;;;;;8.13;7.33;;;16.50;93.20;;;;;;5052890;28;20537;-60
2021/10/19 11:35:04;;;;;;;7.10;6.40;;;16.50;93.30;;;;;;5053159;28;20451;-61
2021/10/19 11:37:38;;;;;;;8.33;6.10;;;16.50;93.60;;;;;;5052901;28;20443;-61
2021/10/19 11:40:12;;;;;;;8.17;7.37;;;16.40;93.70;;;;;;5052531;28;20472;-60
2021/10/19 11:42:46;;;;;;;6.30;5.70;;;16.30;94.00;;;;;;5052897;28;20521;-60
2021/10/19 11:45:15;;;;;;;7.43;5.97;;;16.20;94.10;;;;;;5053264;28;20505;-59
2021/10/19 11:47:47;;;;;;;7.23;5.90;;;16.10;94.50;;;;;;5053400;28;20447;-57
2021/10/19 11:50:16;;;;;;;7.67;5.70;;;16.10;94.90;;;;;;5053262;28;20505;-59
2021/10/19 11:52:43;;;;;;;6.00;5.37;;;16.20;95.20;;;;;;5053000;28;20444;-60
2021/10/19 11:55:12;;;;;;;6.43;5.83;;;16.30;95.20;;;;;;5052609;28;20439;-59
2021/10/19 11:57:40;;;;;;;7.90;6.70;;;16.30;95.10;;;;;;5053696;28;20789;-60
2021/10/19 12:00:09;;;;;;;7.80;6.47;;;16.30;95.10;;;;;;5052819;28;20800;-60
2021/10/19 12:02:46;;;;;;;6.13;5.53;;;16.30;95.10;;;;;;5053577;28;20445;-61
2021/10/19 12:05:13;;;;;;;6.73;5.63;;;16.30;95.30;;;;;;5052884;28;20434;-61
2021/10/19 12:07:48;;;;;;;5.60;5.00;;;16.30;95.50;;;;;;5052753;28;20487;-60
2021/10/19 12:10:19;;;;;;;6.20;5.60;;;16.20;95.70;;;;;;5086188;22;20533;-63
2021/10/19 12:12:54;;;;;;;6.93;5.57;;;16.10;95.90;;;;;;5074832;28;20976;-61
2021/10/19 12:15:22;;;;;;;5.23;4.43;;;16.00;96.10;;;;;;5073267;28;20814;-62
2021/10/19 12:17:53;;;;;;;6.00;5.00;;;16.00;96.30;;;;;;5073016;28;20886;-61
2021/10/19 12:20:21;;;;;;;6.27;5.17;;;15.90;96.40;;;;;;5072893;28;20470;-61
2021/10/19 12:22:48;;;;;;;5.70;5.20;;;15.90;96.50;;;;;;5072879;28;20815;-62
2021/10/19 12:25:17;;;;;;;6.93;4.80;;;15.90;96.70;;;;;;5072923;28;20816;-62
2021/10/19 12:27:44;;;;;;;6.47;4.87;;;15.80;96.80;;;;;;5072805;28;20966;-61
2021/10/19 12:30:13;;;;;;;6.93;5.53;;;15.70;97.00;;;;;;5075826;28;20485;-61
2021/10/19 12:32:41;;;;;;;6.33;4.50;;;15.70;97.30;;;;;;5076881;28;20447;-61
2021/10/19 12:35:10;;;;;;;5.27;4.77;;;15.80;97.50;;;;;;5076842;28;20448;-61
2021/10/19 12:37:40;;;;;;;5.50;5.00;;;15.80;97.40;;;;;;5076482;28;20446;-62
2021/10/19 12:40:13;;;;;;;6.63;4.77;;;15.90;97.40;;;;;;5076176;28;20522;-62
2021/10/19 12:42:42;;;;;;;4.90;4.27;;;15.90;97.30;;;;;;5076851;28;20505;-62
2021/10/19 12:45:09;;;;;;;5.90;5.30;;;15.90;97.30;;;;;;5076612;28;20452;-62
2021/10/19 12:47:36;;;;;;;4.97;4.40;;;15.90;97.30;;;;;;5076308;28;20462;-62
2021/10/19 12:50:04;;;;;;;4.70;4.30;;;16.00;97.40;;;;;;5076093;28;20855;-62
2021/10/19 12:52:31;;;;;;;5.17;4.67;;;16.10;97.40;;;;;;5076065;28;20851;-62